sensor_id;sensor_type;location;lat;lon;timestamp;P1;durP1;ratioP1;P2;durP2;ratioP2
25913;SDS011;13718;50.922;5.346;2023-08-20T00:01:19;27.25;;;18.60;;
25913;SDS011;13718;50.922;5.346;2023-08-20T00:03:50;30.85;;;19.67;;
25913;SDS011;13718;50.922;5.346;2023-08-20T00:06:17;31.95;;;19.98;;
25913;SDS011;13718;50.922;5.346;2023-08-20T00:08:42;32.58;;;19.95;;
25913;SDS011;13718;50.922;5.346;2023-08-20T00:11:08;27.27;;;19.33;;
25913;SDS011;13718;50.922;5.346;2023-08-20T00:13:34;32.03;;;19.80;;
25913;SDS011;13718;50.922;5.346;2023-08-20T00:16:00;30.92;;;18.60;;
25913;SDS011;13718;50.922;5.346;2023-08-20T00:18:27;34.33;;;18.73;;
25913;SDS011;13718;50.922;5.346;2023-08-20T00:20:53;36.83;;;18.38;;
25913;SDS011;13718;50.922;5.346;2023-08-20T00:23:19;33.10;;;18.08;;
25913;SDS011;13718;50.922;5.346;2023-08-20T00:25:44;28.13;;;17.48;;
25913;SDS011;13718;50.922;5.346;2023-08-20T00:28:10;32.10;;;18.85;;
25913;SDS011;13718;50.922;5.346;2023-08-20T00:30:36;31.08;;;18.88;;
25913;SDS011;13718;50.922;5.346;2023-08-20T00:33:01;30.42;;;18.45;;
25913;SDS011;13718;50.922;5.346;2023-08-20T00:35:27;33.47;;;19.23;;
25913;SDS011;13718;50.922;5.346;2023-08-20T00:37:53;33.92;;;19.08;;
25913;SDS011;13718;50.922;5.346;2023-08-20T00:40:18;30.60;;;19.00;;
25913;SDS011;13718;50.922;5.346;2023-08-20T00:42:44;31.05;;;19.25;;
25913;SDS011;13718;50.922;5.346;2023-08-20T00:45:09;34.25;;;19.65;;
25913;SDS011;13718;50.922;5.346;2023-08-20T00:47:35;41.08;;;21.10;;
25913;SDS011;13718;50.922;5.346;2023-08-20T00:50:01;35.75;;;20.17;;
25913;SDS011;13718;50.922;5.346;2023-08-20T00:52:31;40.45;;;20.10;;
25913;SDS011;13718;50.922;5.346;2023-08-20T00:54:57;39.80;;;19.80;;
25913;SDS011;13718;50.922;5.346;2023-08-20T00:57:23;32.33;;;19.55;;
25913;SDS011;13718;50.922;5.346;2023-08-20T00:59:49;35.08;;;20.27;;
25913;SDS011;13718;50.922;5.346;2023-08-20T01:02:16;38.88;;;19.83;;
25913;SDS011;13718;50.922;5.346;2023-08-20T01:04:42;37.03;;;19.80;;
25913;SDS011;13718;50.922;5.346;2023-08-20T01:07:17;30.02;;;19.13;;
25913;SDS011;13718;50.922;5.346;2023-08-20T01:12:29;32.88;;;18.45;;
25913;SDS011;13718;50.922;5.346;2023-08-20T01:14:56;31.67;;;18.35;;
25913;SDS011;13718;50.922;5.346;2023-08-20T01:17:21;40.65;;;17.75;;
25913;SDS011;13718;50.922;5.346;2023-08-20T01:19:47;29.77;;;15.55;;
25913;SDS011;13718;50.922;5.346;2023-08-20T01:22:30;31.80;;;14.40;;
25913;SDS011;13718;50.922;5.346;2023-08-20T01:30:12;28.40;;;12.98;;
25913;SDS011;13718;50.922;5.346;2023-08-20T01:32:38;24.40;;;12.52;;
25913;SDS011;13718;50.922;5.346;2023-08-20T01:35:11;26.02;;;11.50;;
25913;SDS011;13718;50.922;5.346;2023-08-20T01:37:38;25.48;;;11.27;;
25913;SDS011;13718;50.922;5.346;2023-08-20T01:40:05;24.92;;;11.25;;
25913;SDS011;13718;50.922;5.346;2023-08-20T01:42:32;24.23;;;11.32;;
25913;SDS011;13718;50.922;5.346;2023-08-20T01:44:58;23.52;;;11.00;;
25913;SDS011;13718;50.922;5.346;2023-08-20T01:47:23;23.58;;;11.32;;
25913;SDS011;13718;50.922;5.346;2023-08-20T01:49:49;23.35;;;12.50;;
25913;SDS011;13718;50.922;5.346;2023-08-20T01:52:14;29.73;;;11.18;;
25913;SDS011;13718;50.922;5.346;2023-08-20T01:54:40;30.25;;;11.05;;
25913;SDS011;13718;50.922;5.346;2023-08-20T01:57:06;26.48;;;10.90;;
25913;SDS011;13718;50.922;5.346;2023-08-20T01:59:31;25.05;;;9.45;;
25913;SDS011;13718;50.922;5.346;2023-08-20T02:01:57;25.73;;;9.82;;
25913;SDS011;13718;50.922;5.346;2023-08-20T02:04:22;23.48;;;9.98;;
25913;SDS011;13718;50.922;5.346;2023-08-20T02:06:48;22.63;;;10.68;;
25913;SDS011;13718;50.922;5.346;2023-08-20T02:09:13;20.95;;;10.43;;
25913;SDS011;13718;50.922;5.346;2023-08-20T02:11:39;20.58;;;9.05;;
25913;SDS011;13718;50.922;5.346;2023-08-20T02:14:04;24.05;;;9.05;;
25913;SDS011;13718;50.922;5.346;2023-08-20T02:16:30;25.75;;;8.85;;
25913;SDS011;13718;50.922;5.346;2023-08-20T02:18:55;19.65;;;7.90;;
25913;SDS011;13718;50.922;5.346;2023-08-20T02:21:21;20.65;;;7.75;;
25913;SDS011;13718;50.922;5.346;2023-08-20T02:23:46;22.25;;;7.05;;
25913;SDS011;13718;50.922;5.346;2023-08-20T02:26:12;16.08;;;6.97;;
25913;SDS011;13718;50.922;5.346;2023-08-20T02:28:37;21.65;;;7.20;;
25913;SDS011;13718;50.922;5.346;2023-08-20T02:31:04;21.38;;;7.35;;
25913;SDS011;13718;50.922;5.346;2023-08-20T02:33:29;22.40;;;7.10;;
25913;SDS011;13718;50.922;5.346;2023-08-20T02:35:55;15.50;;;6.60;;
25913;SDS011;13718;50.922;5.346;2023-08-20T02:38:25;17.98;;;7.03;;
25913;SDS011;13718;50.922;5.346;2023-08-20T02:40:51;21.00;;;6.13;;
25913;SDS011;13718;50.922;5.346;2023-08-20T02:43:16;19.52;;;5.97;;
25913;SDS011;13718;50.922;5.346;2023-08-20T02:45:42;22.15;;;6.38;;
25913;SDS011;13718;50.922;5.346;2023-08-20T02:48:08;18.63;;;5.75;;
25913;SDS011;13718;50.922;5.346;2023-08-20T02:50:34;15.70;;;5.95;;
25913;SDS011;13718;50.922;5.346;2023-08-20T02:52:59;25.45;;;5.75;;
25913;SDS011;13718;50.922;5.346;2023-08-20T02:55:25;18.05;;;5.20;;
25913;SDS011;13718;50.922;5.346;2023-08-20T02:57:50;16.92;;;5.60;;
25913;SDS011;13718;50.922;5.346;2023-08-20T03:00:16;19.55;;;5.47;;
25913;SDS011;13718;50.922;5.346;2023-08-20T03:02:41;18.77;;;5.47;;
25913;SDS011;13718;50.922;5.346;2023-08-20T03:05:07;17.65;;;5.18;;
25913;SDS011;13718;50.922;5.346;2023-08-20T03:07:34;16.30;;;5.05;;
25913;SDS011;13718;50.922;5.346;2023-08-20T03:10:00;23.88;;;5.28;;
25913;SDS011;13718;50.922;5.346;2023-08-20T03:12:26;15.40;;;4.55;;
25913;SDS011;13718;50.922;5.346;2023-08-20T03:14:51;19.10;;;4.82;;
25913;SDS011;13718;50.922;5.346;2023-08-20T03:17:17;17.63;;;4.30;;
25913;SDS011;13718;50.922;5.346;2023-08-20T03:22:24;17.15;;;5.03;;
25913;SDS011;13718;50.922;5.346;2023-08-20T03:24:51;19.40;;;5.05;;
25913;SDS011;13718;50.922;5.346;2023-08-20T03:27:17;14.50;;;4.55;;
25913;SDS011;13718;50.922;5.346;2023-08-20T03:29:43;15.80;;;5.55;;
25913;SDS011;13718;50.922;5.346;2023-08-20T03:32:09;12.93;;;5.03;;
25913;SDS011;13718;50.922;5.346;2023-08-20T03:34:35;17.55;;;4.95;;
25913;SDS011;13718;50.922;5.346;2023-08-20T03:37:01;13.07;;;5.25;;
25913;SDS011;13718;50.922;5.346;2023-08-20T03:39:26;18.92;;;5.22;;
25913;SDS011;13718;50.922;5.346;2023-08-20T03:41:52;18.27;;;5.30;;
25913;SDS011;13718;50.922;5.346;2023-08-20T03:44:18;20.50;;;5.53;;
25913;SDS011;13718;50.922;5.346;2023-08-20T03:46:44;21.83;;;5.05;;
25913;SDS011;13718;50.922;5.346;2023-08-20T03:49:09;16.63;;;4.82;;
25913;SDS011;13718;50.922;5.346;2023-08-20T03:51:35;17.80;;;4.72;;
25913;SDS011;13718;50.922;5.346;2023-08-20T03:54:00;13.40;;;4.82;;
25913;SDS011;13718;50.922;5.346;2023-08-20T03:56:26;14.93;;;5.35;;
25913;SDS011;13718;50.922;5.346;2023-08-20T03:58:52;15.77;;;4.72;;
25913;SDS011;13718;50.922;5.346;2023-08-20T04:01:18;17.00;;;4.53;;
25913;SDS011;13718;50.922;5.346;2023-08-20T04:03:45;15.90;;;4.78;;
25913;SDS011;13718;50.922;5.346;2023-08-20T04:06:10;17.33;;;5.18;;
25913;SDS011;13718;50.922;5.346;2023-08-20T04:08:36;14.57;;;5.22;;
25913;SDS011;13718;50.922;5.346;2023-08-20T04:11:02;17.17;;;5.32;;
25913;SDS011;13718;50.922;5.346;2023-08-20T04:13:28;18.17;;;5.18;;
25913;SDS011;13718;50.922;5.346;2023-08-20T04:15:54;15.63;;;5.43;;
25913;SDS011;13718;50.922;5.346;2023-08-20T04:18:20;14.60;;;5.00;;
25913;SDS011;13718;50.922;5.346;2023-08-20T04:20:45;17.95;;;5.60;;
25913;SDS011;13718;50.922;5.346;2023-08-20T04:23:11;14.73;;;5.03;;
25913;SDS011;13718;50.922;5.346;2023-08-20T04:25:37;19.05;;;5.20;;
25913;SDS011;13718;50.922;5.346;2023-08-20T04:28:02;16.52;;;5.85;;
25913;SDS011;13718;50.922;5.346;2023-08-20T04:30:28;17.90;;;5.22;;
25913;SDS011;13718;50.922;5.346;2023-08-20T04:32:53;12.20;;;5.20;;
25913;SDS011;13718;50.922;5.346;2023-08-20T04:35:19;17.60;;;5.70;;
25913;SDS011;13718;50.922;5.346;2023-08-20T04:37:45;18.80;;;5.90;;
25913;SDS011;13718;50.922;5.346;2023-08-20T04:40:11;13.80;;;5.55;;
25913;SDS011;13718;50.922;5.346;2023-08-20T04:42:37;16.02;;;5.07;;
25913;SDS011;13718;50.922;5.346;2023-08-20T04:45:03;18.52;;;5.15;;
25913;SDS011;13718;50.922;5.346;2023-08-20T04:47:28;19.13;;;5.80;;
25913;SDS011;13718;50.922;5.346;2023-08-20T04:49:54;16.40;;;5.75;;
25913;SDS011;13718;50.922;5.346;2023-08-20T04:52:20;19.80;;;5.55;;
25913;SDS011;13718;50.922;5.346;2023-08-20T04:54:46;14.02;;;5.40;;
25913;SDS011;13718;50.922;5.346;2023-08-20T04:57:12;16.77;;;6.00;;
25913;SDS011;13718;50.922;5.346;2023-08-20T04:59:37;19.02;;;6.68;;
25913;SDS011;13718;50.922;5.346;2023-08-20T05:02:03;21.90;;;6.72;;
25913;SDS011;13718;50.922;5.346;2023-08-20T05:04:29;17.60;;;6.03;;
25913;SDS011;13718;50.922;5.346;2023-08-20T05:06:54;15.45;;;6.63;;
25913;SDS011;13718;50.922;5.346;2023-08-20T05:09:20;20.08;;;6.80;;
25913;SDS011;13718;50.922;5.346;2023-08-20T05:11:46;17.40;;;6.20;;
25913;SDS011;13718;50.922;5.346;2023-08-20T05:14:12;15.02;;;6.75;;
25913;SDS011;13718;50.922;5.346;2023-08-20T05:16:37;19.33;;;7.38;;
25913;SDS011;13718;50.922;5.346;2023-08-20T05:19:03;18.70;;;7.55;;
25913;SDS011;13718;50.922;5.346;2023-08-20T05:21:29;16.25;;;7.50;;
25913;SDS011;13718;50.922;5.346;2023-08-20T05:23:54;19.38;;;8.20;;
25913;SDS011;13718;50.922;5.346;2023-08-20T05:26:21;16.60;;;7.88;;
25913;SDS011;13718;50.922;5.346;2023-08-20T05:28:47;16.73;;;7.63;;
25913;SDS011;13718;50.922;5.346;2023-08-20T05:31:13;18.48;;;8.40;;
25913;SDS011;13718;50.922;5.346;2023-08-20T05:33:38;19.65;;;8.75;;
25913;SDS011;13718;50.922;5.346;2023-08-20T05:36:04;19.52;;;8.10;;
25913;SDS011;13718;50.922;5.346;2023-08-20T05:38:30;20.45;;;7.28;;
25913;SDS011;13718;50.922;5.346;2023-08-20T05:40:55;20.00;;;7.87;;
25913;SDS011;13718;50.922;5.346;2023-08-20T05:43:21;18.40;;;7.43;;
25913;SDS011;13718;50.922;5.346;2023-08-20T05:45:46;16.05;;;7.40;;
25913;SDS011;13718;50.922;5.346;2023-08-20T05:48:12;23.63;;;7.53;;
25913;SDS011;13718;50.922;5.346;2023-08-20T05:50:37;17.70;;;7.90;;
25913;SDS011;13718;50.922;5.346;2023-08-20T05:53:03;17.33;;;7.20;;
25913;SDS011;13718;50.922;5.346;2023-08-20T05:55:28;20.70;;;7.57;;
25913;SDS011;13718;50.922;5.346;2023-08-20T05:57:54;21.35;;;7.40;;
25913;SDS011;13718;50.922;5.346;2023-08-20T06:00:19;19.38;;;7.03;;
25913;SDS011;13718;50.922;5.346;2023-08-20T06:02:45;14.63;;;6.85;;
25913;SDS011;13718;50.922;5.346;2023-08-20T06:05:10;19.02;;;7.93;;
25913;SDS011;13718;50.922;5.346;2023-08-20T06:07:36;16.38;;;6.88;;
25913;SDS011;13718;50.922;5.346;2023-08-20T06:10:02;16.08;;;7.10;;
25913;SDS011;13718;50.922;5.346;2023-08-20T06:12:27;20.20;;;6.68;;
25913;SDS011;13718;50.922;5.346;2023-08-20T06:14:53;16.38;;;6.05;;
25913;SDS011;13718;50.922;5.346;2023-08-20T06:17:19;15.00;;;6.25;;
25913;SDS011;13718;50.922;5.346;2023-08-20T06:19:44;12.57;;;5.88;;
25913;SDS011;13718;50.922;5.346;2023-08-20T06:22:10;16.92;;;5.80;;
25913;SDS011;13718;50.922;5.346;2023-08-20T06:24:36;14.40;;;5.32;;
25913;SDS011;13718;50.922;5.346;2023-08-20T06:27:01;13.07;;;5.10;;
25913;SDS011;13718;50.922;5.346;2023-08-20T06:29:27;18.77;;;5.60;;
25913;SDS011;13718;50.922;5.346;2023-08-20T06:31:52;15.93;;;5.05;;
25913;SDS011;13718;50.922;5.346;2023-08-20T06:34:18;13.70;;;5.53;;
25913;SDS011;13718;50.922;5.346;2023-08-20T06:36:43;14.43;;;4.38;;
25913;SDS011;13718;50.922;5.346;2023-08-20T06:39:09;17.13;;;5.22;;
25913;SDS011;13718;50.922;5.346;2023-08-20T06:41:35;20.95;;;4.60;;
25913;SDS011;13718;50.922;5.346;2023-08-20T06:44:01;16.05;;;4.85;;
25913;SDS011;13718;50.922;5.346;2023-08-20T06:46:27;12.57;;;4.60;;
25913;SDS011;13718;50.922;5.346;2023-08-20T06:48:53;15.70;;;5.72;;
25913;SDS011;13718;50.922;5.346;2023-08-20T06:51:19;16.15;;;5.00;;
25913;SDS011;13718;50.922;5.346;2023-08-20T06:53:46;14.13;;;5.07;;
25913;SDS011;13718;50.922;5.346;2023-08-20T06:56:12;17.20;;;5.32;;
25913;SDS011;13718;50.922;5.346;2023-08-20T06:58:38;12.82;;;5.25;;
25913;SDS011;13718;50.922;5.346;2023-08-20T07:01:05;16.90;;;5.57;;
25913;SDS011;13718;50.922;5.346;2023-08-20T07:03:35;16.23;;;6.10;;
25913;SDS011;13718;50.922;5.346;2023-08-20T07:06:05;17.67;;;5.72;;
25913;SDS011;13718;50.922;5.346;2023-08-20T07:08:31;13.55;;;5.57;;
25913;SDS011;13718;50.922;5.346;2023-08-20T07:10:57;18.02;;;5.40;;
25913;SDS011;13718;50.922;5.346;2023-08-20T07:13:22;17.95;;;5.60;;
25913;SDS011;13718;50.922;5.346;2023-08-20T07:15:48;14.18;;;5.22;;
25913;SDS011;13718;50.922;5.346;2023-08-20T07:18:14;12.65;;;5.25;;
25913;SDS011;13718;50.922;5.346;2023-08-20T07:20:43;15.60;;;5.00;;
25913;SDS011;13718;50.922;5.346;2023-08-20T07:23:09;16.02;;;5.55;;
25913;SDS011;13718;50.922;5.346;2023-08-20T07:25:36;15.90;;;5.00;;
25913;SDS011;13718;50.922;5.346;2023-08-20T07:28:03;15.32;;;5.35;;
25913;SDS011;13718;50.922;5.346;2023-08-20T07:30:32;17.95;;;5.78;;
25913;SDS011;13718;50.922;5.346;2023-08-20T07:32:58;16.85;;;6.40;;
25913;SDS011;13718;50.922;5.346;2023-08-20T07:35:23;16.20;;;7.47;;
25913;SDS011;13718;50.922;5.346;2023-08-20T07:37:49;19.50;;;8.13;;
25913;SDS011;13718;50.922;5.346;2023-08-20T07:40:15;19.05;;;9.00;;
25913;SDS011;13718;50.922;5.346;2023-08-20T07:42:41;17.58;;;7.30;;
25913;SDS011;13718;50.922;5.346;2023-08-20T07:45:07;17.48;;;6.88;;
25913;SDS011;13718;50.922;5.346;2023-08-20T07:47:33;12.75;;;6.68;;
25913;SDS011;13718;50.922;5.346;2023-08-20T07:50:00;19.35;;;6.80;;
25913;SDS011;13718;50.922;5.346;2023-08-20T07:52:26;17.33;;;7.03;;
25913;SDS011;13718;50.922;5.346;2023-08-20T07:54:51;20.13;;;6.63;;
25913;SDS011;13718;50.922;5.346;2023-08-20T07:57:17;14.32;;;5.80;;
25913;SDS011;13718;50.922;5.346;2023-08-20T07:59:42;20.02;;;5.55;;
25913;SDS011;13718;50.922;5.346;2023-08-20T08:02:08;16.70;;;5.93;;
25913;SDS011;13718;50.922;5.346;2023-08-20T08:04:33;16.88;;;5.53;;
25913;SDS011;13718;50.922;5.346;2023-08-20T08:06:59;13.95;;;5.43;;
25913;SDS011;13718;50.922;5.346;2023-08-20T08:09:28;15.60;;;6.13;;
25913;SDS011;13718;50.922;5.346;2023-08-20T08:11:56;12.88;;;5.03;;
25913;SDS011;13718;50.922;5.346;2023-08-20T08:14:23;14.55;;;5.43;;
25913;SDS011;13718;50.922;5.346;2023-08-20T08:16:49;13.85;;;5.65;;
25913;SDS011;13718;50.922;5.346;2023-08-20T08:19:15;13.77;;;4.90;;
25913;SDS011;13718;50.922;5.346;2023-08-20T08:21:41;13.40;;;5.22;;
25913;SDS011;13718;50.922;5.346;2023-08-20T08:24:08;15.35;;;4.60;;
25913;SDS011;13718;50.922;5.346;2023-08-20T08:26:34;14.23;;;5.32;;
25913;SDS011;13718;50.922;5.346;2023-08-20T08:29:03;12.85;;;4.82;;
25913;SDS011;13718;50.922;5.346;2023-08-20T08:31:29;16.27;;;4.88;;
25913;SDS011;13718;50.922;5.346;2023-08-20T08:33:54;12.10;;;3.88;;
25913;SDS011;13718;50.922;5.346;2023-08-20T08:36:20;13.88;;;4.80;;
25913;SDS011;13718;50.922;5.346;2023-08-20T08:38:45;15.73;;;3.83;;
25913;SDS011;13718;50.922;5.346;2023-08-20T08:41:12;11.35;;;3.53;;
25913;SDS011;13718;50.922;5.346;2023-08-20T08:43:38;13.43;;;4.00;;
25913;SDS011;13718;50.922;5.346;2023-08-20T08:46:13;11.45;;;3.33;;
25913;SDS011;13718;50.922;5.346;2023-08-20T08:48:42;12.38;;;3.85;;
25913;SDS011;13718;50.922;5.346;2023-08-20T08:51:09;12.63;;;3.47;;
25913;SDS011;13718;50.922;5.346;2023-08-20T08:53:35;11.43;;;3.15;;
25913;SDS011;13718;50.922;5.346;2023-08-20T08:56:01;10.23;;;3.78;;
25913;SDS011;13718;50.922;5.346;2023-08-20T08:58:28;9.75;;;3.53;;
25913;SDS011;13718;50.922;5.346;2023-08-20T09:00:54;12.95;;;3.75;;
25913;SDS011;13718;50.922;5.346;2023-08-20T09:03:20;13.25;;;3.15;;
25913;SDS011;13718;50.922;5.346;2023-08-20T09:05:46;15.48;;;3.80;;
25913;SDS011;13718;50.922;5.346;2023-08-20T09:08:19;15.30;;;3.63;;
25913;SDS011;13718;50.922;5.346;2023-08-20T09:10:52;10.45;;;3.63;;
25913;SDS011;13718;50.922;5.346;2023-08-20T09:13:22;12.15;;;3.30;;
25913;SDS011;13718;50.922;5.346;2023-08-20T09:15:52;12.65;;;3.42;;
25913;SDS011;13718;50.922;5.346;2023-08-20T09:18:19;12.93;;;3.45;;
25913;SDS011;13718;50.922;5.346;2023-08-20T09:20:47;8.93;;;2.80;;
25913;SDS011;13718;50.922;5.346;2023-08-20T09:23:14;8.07;;;3.13;;
25913;SDS011;13718;50.922;5.346;2023-08-20T09:25:40;8.85;;;2.65;;
25913;SDS011;13718;50.922;5.346;2023-08-20T09:28:07;12.63;;;4.22;;
25913;SDS011;13718;50.922;5.346;2023-08-20T09:30:33;11.85;;;3.45;;
25913;SDS011;13718;50.922;5.346;2023-08-20T09:33:03;11.90;;;3.70;;
25913;SDS011;13718;50.922;5.346;2023-08-20T09:35:42;11.63;;;3.50;;
25913;SDS011;13718;50.922;5.346;2023-08-20T09:38:14;13.88;;;3.67;;
25913;SDS011;13718;50.922;5.346;2023-08-20T09:40:39;12.25;;;3.67;;
25913;SDS011;13718;50.922;5.346;2023-08-20T09:43:05;11.05;;;3.22;;
25913;SDS011;13718;50.922;5.346;2023-08-20T09:45:33;11.00;;;3.85;;
25913;SDS011;13718;50.922;5.346;2023-08-20T09:48:01;14.63;;;3.70;;
25913;SDS011;13718;50.922;5.346;2023-08-20T09:50:30;15.30;;;3.90;;
25913;SDS011;13718;50.922;5.346;2023-08-20T09:56:00;13.88;;;3.63;;
25913;SDS011;13718;50.922;5.346;2023-08-20T09:58:39;13.75;;;3.42;;
25913;SDS011;13718;50.922;5.346;2023-08-20T10:01:07;13.07;;;3.60;;
25913;SDS011;13718;50.922;5.346;2023-08-20T10:03:32;9.27;;;3.03;;
25913;SDS011;13718;50.922;5.346;2023-08-20T10:05:58;14.50;;;3.70;;
25913;SDS011;13718;50.922;5.346;2023-08-20T10:08:26;14.10;;;3.90;;
25913;SDS011;13718;50.922;5.346;2023-08-20T10:10:52;16.73;;;3.08;;
25913;SDS011;13718;50.922;5.346;2023-08-20T10:13:18;13.15;;;3.25;;
25913;SDS011;13718;50.922;5.346;2023-08-20T10:15:44;13.68;;;3.20;;
25913;SDS011;13718;50.922;5.346;2023-08-20T10:18:11;10.73;;;2.95;;
25913;SDS011;13718;50.922;5.346;2023-08-20T10:20:38;12.50;;;2.78;;
25913;SDS011;13718;50.922;5.346;2023-08-20T10:23:05;10.27;;;2.67;;
25913;SDS011;13718;50.922;5.346;2023-08-20T10:25:31;9.68;;;2.65;;
25913;SDS011;13718;50.922;5.346;2023-08-20T10:28:22;11.20;;;2.65;;
25913;SDS011;13718;50.922;5.346;2023-08-20T10:31:03;13.57;;;3.38;;
25913;SDS011;13718;50.922;5.346;2023-08-20T10:33:29;8.32;;;2.45;;
25913;SDS011;13718;50.922;5.346;2023-08-20T10:35:55;8.80;;;1.70;;
25913;SDS011;13718;50.922;5.346;2023-08-20T10:38:20;7.15;;;1.98;;
25913;SDS011;13718;50.922;5.346;2023-08-20T10:48:43;10.98;;;2.13;;
25913;SDS011;13718;50.922;5.346;2023-08-20T11:01:44;7.18;;;2.45;;
25913;SDS011;13718;50.922;5.346;2023-08-20T11:04:11;11.27;;;2.97;;
25913;SDS011;13718;50.922;5.346;2023-08-20T11:06:38;5.88;;;2.20;;
25913;SDS011;13718;50.922;5.346;2023-08-20T11:09:04;7.32;;;2.78;;
25913;SDS011;13718;50.922;5.346;2023-08-20T11:11:33;7.60;;;2.10;;
25913;SDS011;13718;50.922;5.346;2023-08-20T11:14:05;9.38;;;2.70;;
25913;SDS011;13718;50.922;5.346;2023-08-20T11:16:32;8.32;;;2.20;;
25913;SDS011;13718;50.922;5.346;2023-08-20T11:18:59;10.98;;;2.90;;
25913;SDS011;13718;50.922;5.346;2023-08-20T11:21:24;9.13;;;3.00;;
25913;SDS011;13718;50.922;5.346;2023-08-20T11:23:50;7.75;;;2.50;;
25913;SDS011;13718;50.922;5.346;2023-08-20T11:26:17;13.05;;;2.10;;
25913;SDS011;13718;50.922;5.346;2023-08-20T11:28:46;10.57;;;3.03;;
25913;SDS011;13718;50.922;5.346;2023-08-20T11:31:12;10.25;;;2.92;;
25913;SDS011;13718;50.922;5.346;2023-08-20T11:33:37;9.85;;;2.78;;
25913;SDS011;13718;50.922;5.346;2023-08-20T11:36:04;6.85;;;2.30;;
25913;SDS011;13718;50.922;5.346;2023-08-20T11:38:30;9.23;;;2.28;;
25913;SDS011;13718;50.922;5.346;2023-08-20T11:40:57;8.45;;;2.30;;
25913;SDS011;13718;50.922;5.346;2023-08-20T11:43:24;9.00;;;2.97;;
25913;SDS011;13718;50.922;5.346;2023-08-20T11:45:52;10.20;;;2.50;;
25913;SDS011;13718;50.922;5.346;2023-08-20T11:48:19;11.80;;;2.90;;
25913;SDS011;13718;50.922;5.346;2023-08-20T11:50:46;10.00;;;2.75;;
25913;SDS011;13718;50.922;5.346;2023-08-20T11:53:12;9.02;;;2.53;;
25913;SDS011;13718;50.922;5.346;2023-08-20T11:55:38;9.02;;;2.42;;
25913;SDS011;13718;50.922;5.346;2023-08-20T11:58:08;7.13;;;2.10;;
25913;SDS011;13718;50.922;5.346;2023-08-20T12:00:36;8.15;;;2.35;;
25913;SDS011;13718;50.922;5.346;2023-08-20T12:03:01;9.55;;;2.65;;
25913;SDS011;13718;50.922;5.346;2023-08-20T12:05:29;9.98;;;2.47;;
25913;SDS011;13718;50.922;5.346;2023-08-20T12:07:58;13.75;;;2.95;;
25913;SDS011;13718;50.922;5.346;2023-08-20T12:10:25;8.68;;;2.40;;
25913;SDS011;13718;50.922;5.346;2023-08-20T12:12:53;7.45;;;2.20;;
25913;SDS011;13718;50.922;5.346;2023-08-20T12:15:20;10.45;;;2.55;;
25913;SDS011;13718;50.922;5.346;2023-08-20T12:18:02;6.13;;;2.17;;
25913;SDS011;13718;50.922;5.346;2023-08-20T12:20:34;8.13;;;2.15;;
25913;SDS011;13718;50.922;5.346;2023-08-20T12:23:06;10.00;;;2.33;;
25913;SDS011;13718;50.922;5.346;2023-08-20T12:25:32;9.02;;;2.53;;
25913;SDS011;13718;50.922;5.346;2023-08-20T12:28:01;10.27;;;2.45;;
25913;SDS011;13718;50.922;5.346;2023-08-20T12:30:28;7.85;;;1.85;;
25913;SDS011;13718;50.922;5.346;2023-08-20T12:32:54;7.43;;;2.10;;
25913;SDS011;13718;50.922;5.346;2023-08-20T12:35:19;8.70;;;2.00;;
25913;SDS011;13718;50.922;5.346;2023-08-20T12:37:45;5.85;;;2.15;;
25913;SDS011;13718;50.922;5.346;2023-08-20T12:40:11;7.65;;;2.20;;
25913;SDS011;13718;50.922;5.346;2023-08-20T12:42:37;10.13;;;2.22;;
25913;SDS011;13718;50.922;5.346;2023-08-20T12:45:06;6.82;;;2.00;;
25913;SDS011;13718;50.922;5.346;2023-08-20T12:47:33;9.13;;;2.17;;
25913;SDS011;13718;50.922;5.346;2023-08-20T12:49:59;8.00;;;1.98;;
25913;SDS011;13718;50.922;5.346;2023-08-20T12:52:24;7.07;;;2.00;;
25913;SDS011;13718;50.922;5.346;2023-08-20T12:54:50;9.10;;;2.15;;
25913;SDS011;13718;50.922;5.346;2023-08-20T12:57:15;8.65;;;2.33;;
25913;SDS011;13718;50.922;5.346;2023-08-20T12:59:41;5.20;;;2.03;;
25913;SDS011;13718;50.922;5.346;2023-08-20T13:02:07;6.70;;;1.90;;
25913;SDS011;13718;50.922;5.346;2023-08-20T13:04:33;6.82;;;1.88;;
25913;SDS011;13718;50.922;5.346;2023-08-20T13:06:59;6.55;;;1.90;;
25913;SDS011;13718;50.922;5.346;2023-08-20T13:09:26;5.68;;;1.75;;
25913;SDS011;13718;50.922;5.346;2023-08-20T13:11:53;5.93;;;2.08;;
25913;SDS011;13718;50.922;5.346;2023-08-20T13:14:20;7.95;;;2.13;;
25913;SDS011;13718;50.922;5.346;2023-08-20T13:16:46;5.60;;;1.95;;
25913;SDS011;13718;50.922;5.346;2023-08-20T13:19:12;6.25;;;1.75;;
25913;SDS011;13718;50.922;5.346;2023-08-20T13:21:37;7.75;;;2.50;;
25913;SDS011;13718;50.922;5.346;2023-08-20T13:24:03;6.93;;;2.08;;
25913;SDS011;13718;50.922;5.346;2023-08-20T13:26:29;5.10;;;1.77;;
25913;SDS011;13718;50.922;5.346;2023-08-20T13:28:55;8.00;;;1.88;;
25913;SDS011;13718;50.922;5.346;2023-08-20T13:31:20;5.38;;;1.95;;
25913;SDS011;13718;50.922;5.346;2023-08-20T13:33:46;7.75;;;2.00;;
25913;SDS011;13718;50.922;5.346;2023-08-20T13:36:11;7.43;;;1.85;;
25913;SDS011;13718;50.922;5.346;2023-08-20T13:38:37;5.03;;;1.63;;
25913;SDS011;13718;50.922;5.346;2023-08-20T13:41:02;6.90;;;2.13;;
25913;SDS011;13718;50.922;5.346;2023-08-20T13:43:28;7.88;;;1.88;;
25913;SDS011;13718;50.922;5.346;2023-08-20T13:45:54;7.50;;;1.80;;
25913;SDS011;13718;50.922;5.346;2023-08-20T13:48:19;5.85;;;1.60;;
25913;SDS011;13718;50.922;5.346;2023-08-20T13:50:45;4.13;;;1.42;;
25913;SDS011;13718;50.922;5.346;2023-08-20T13:53:10;6.47;;;1.60;;
25913;SDS011;13718;50.922;5.346;2023-08-20T13:55:36;7.50;;;1.50;;
25913;SDS011;13718;50.922;5.346;2023-08-20T13:58:01;4.47;;;1.50;;
25913;SDS011;13718;50.922;5.346;2023-08-20T14:00:27;5.25;;;1.63;;
25913;SDS011;13718;50.922;5.346;2023-08-20T14:02:52;5.85;;;1.40;;
25913;SDS011;13718;50.922;5.346;2023-08-20T14:05:18;4.10;;;1.30;;
25913;SDS011;13718;50.922;5.346;2023-08-20T14:07:44;5.70;;;1.52;;
25913;SDS011;13718;50.922;5.346;2023-08-20T14:10:10;3.83;;;1.20;;
25913;SDS011;13718;50.922;5.346;2023-08-20T14:12:36;6.82;;;1.30;;
25913;SDS011;13718;50.922;5.346;2023-08-20T14:15:01;5.53;;;1.25;;
25913;SDS011;13718;50.922;5.346;2023-08-20T14:17:27;7.72;;;1.20;;
25913;SDS011;13718;50.922;5.346;2023-08-20T14:19:52;4.93;;;1.30;;
25913;SDS011;13718;50.922;5.346;2023-08-20T14:22:18;4.57;;;1.30;;
25913;SDS011;13718;50.922;5.346;2023-08-20T14:24:44;7.55;;;1.65;;
25913;SDS011;13718;50.922;5.346;2023-08-20T14:27:09;5.55;;;1.23;;
25913;SDS011;13718;50.922;5.346;2023-08-20T14:29:35;9.48;;;2.05;;
25913;SDS011;13718;50.922;5.346;2023-08-20T14:32:01;5.93;;;1.40;;
25913;SDS011;13718;50.922;5.346;2023-08-20T14:34:28;5.47;;;1.40;;
25913;SDS011;13718;50.922;5.346;2023-08-20T14:36:54;6.90;;;1.77;;
25913;SDS011;13718;50.922;5.346;2023-08-20T14:39:20;5.90;;;1.42;;
25913;SDS011;13718;50.922;5.346;2023-08-20T14:41:45;5.85;;;1.20;;
25913;SDS011;13718;50.922;5.346;2023-08-20T14:44:11;4.72;;;1.45;;
25913;SDS011;13718;50.922;5.346;2023-08-20T14:46:36;4.22;;;1.35;;
25913;SDS011;13718;50.922;5.346;2023-08-20T14:49:03;5.13;;;1.23;;
25913;SDS011;13718;50.922;5.346;2023-08-20T14:51:29;7.10;;;1.67;;
25913;SDS011;13718;50.922;5.346;2023-08-20T14:53:54;4.95;;;1.40;;
25913;SDS011;13718;50.922;5.346;2023-08-20T14:56:20;5.43;;;1.30;;
25913;SDS011;13718;50.922;5.346;2023-08-20T14:58:45;4.55;;;1.33;;
25913;SDS011;13718;50.922;5.346;2023-08-20T15:01:11;7.25;;;1.50;;
25913;SDS011;13718;50.922;5.346;2023-08-20T15:03:36;8.30;;;1.58;;